createdAt,value
2022-08-25T00:00:15.801Z,67.1
2022-08-25T00:01:17.870Z,67.2
2022-08-25T00:02:19.880Z,67.2
2022-08-25T00:03:21.818Z,67.2
2022-08-25T00:04:23.906Z,67.2
2022-08-25T00:05:26.029Z,67.2
2022-08-25T00:06:27.938Z,67.2
2022-08-25T00:07:29.897Z,67.2
2022-08-25T00:08:31.993Z,67.1
2022-08-25T00:09:34.026Z,67.1
2022-08-25T00:10:35.937Z,67.1
2022-08-25T00:11:37.897Z,67.2
2022-08-25T00:12:39.897Z,67.2
2022-08-25T00:13:42.016Z,67.2
2022-08-25T00:14:43.802Z,67.2
2022-08-25T00:15:47.384Z,67.3
2022-08-25T00:16:49.099Z,67.5
2022-08-25T00:17:50.886Z,67.5
2022-08-25T00:18:52.762Z,67.6
2022-08-25T00:19:54.897Z,67.8
2022-08-25T00:20:56.938Z,68
2022-08-25T00:21:58.857Z,68.2
2022-08-25T00:23:00.777Z,68.6
2022-08-25T00:24:02.768Z,68.8
2022-08-25T00:25:04.898Z,69.2
2022-08-25T00:26:07.158Z,69.3
2022-08-25T00:27:08.845Z,69.3
2022-08-25T00:28:11.077Z,69.4
2022-08-25T00:29:13.077Z,69.2
2022-08-25T00:30:15.918Z,69.1
2022-08-25T00:31:16.914Z,69
2022-08-25T00:32:18.790Z,69.1
2022-08-25T00:33:21.018Z,69
2022-08-25T00:34:22.965Z,68.9
2022-08-25T00:35:25.038Z,68.7
2022-08-25T00:36:27.000Z,68.7
2022-08-25T00:37:29.077Z,68.7
2022-08-25T00:38:30.837Z,68.8
2022-08-25T00:39:32.817Z,68.9
2022-08-25T00:40:35.056Z,68.7
2022-08-25T00:41:36.737Z,68.6
2022-08-25T00:42:39.058Z,68.6
2022-08-25T00:43:40.997Z,68.6
2022-08-25T00:44:42.818Z,68.3
2022-08-25T00:45:44.558Z,68.4
2022-08-25T00:46:45.819Z,68.6
2022-08-25T00:47:47.705Z,68.5
2022-08-25T00:48:48.817Z,68.5
2022-08-25T00:49:51.072Z,68.6
2022-08-25T00:50:52.826Z,68.8
2022-08-25T00:51:54.653Z,69
2022-08-25T00:52:55.896Z,69
2022-08-25T00:53:58.221Z,69
2022-08-25T00:55:03.113Z,69
2022-08-25T00:56:01.892Z,68.8
2022-08-25T00:57:03.936Z,68.7
2022-08-25T00:58:06.102Z,68.7
2022-08-25T00:59:07.916Z,68.7
2022-08-25T01:00:09.897Z,68.6
2022-08-25T01:03:10.636Z,68.5
2022-08-25T01:04:12.044Z,68.4
2022-08-25T01:05:13.915Z,68.3
2022-08-25T01:06:15.916Z,68.3
2022-08-25T01:07:17.900Z,68.2
2022-08-25T01:08:19.897Z,68
2022-08-25T01:09:21.677Z,67.8
2022-08-25T01:10:22.658Z,67.8
2022-08-25T01:11:23.976Z,67.8
2022-08-25T01:12:25.855Z,67.8
2022-08-25T01:13:27.835Z,67.7
2022-08-25T01:14:29.855Z,67.8
2022-08-25T01:15:31.933Z,67.9
2022-08-25T01:16:34.196Z,67.9
2022-08-25T01:17:35.876Z,67.9
2022-08-25T01:18:37.816Z,67.9
2022-08-25T01:19:39.781Z,67.8
2022-08-25T01:20:42.075Z,67.8
2022-08-25T01:21:43.936Z,67.7
2022-08-25T01:22:46.096Z,67.7
2022-08-25T01:23:47.955Z,67.7
2022-08-25T01:24:49.996Z,67.8
2022-08-25T01:25:51.996Z,67.8
2022-08-25T01:26:53.855Z,67.7
2022-08-25T01:27:55.715Z,67.6
2022-08-25T01:28:57.956Z,67.6
2022-08-25T01:29:59.976Z,67.8
2022-08-25T01:31:01.902Z,67.8
2022-08-25T01:32:04.017Z,67.8
2022-08-25T01:33:05.836Z,67.9
2022-08-25T01:34:07.895Z,67.8
2022-08-25T01:35:09.983Z,67.7
2022-08-25T01:36:11.795Z,67.6
2022-08-25T01:37:13.855Z,67.5
2022-08-25T01:38:15.924Z,67.3
2022-08-25T01:39:17.916Z,67.2
2022-08-25T01:40:19.864Z,67
2022-08-25T01:41:21.980Z,67.1
2022-08-25T01:42:23.995Z,66.8
2022-08-25T01:43:25.915Z,67.2
2022-08-25T01:44:27.875Z,67.3
2022-08-25T01:45:29.736Z,67.2
2022-08-25T01:46:30.986Z,67.3
2022-08-25T01:47:32.756Z,67.2
2022-08-25T01:48:33.855Z,67.2
2022-08-25T01:49:35.895Z,67.2
2022-08-25T01:50:37.879Z,67.2
2022-08-25T01:51:39.875Z,67.1
2022-08-25T01:52:41.955Z,67.1
2022-08-25T01:53:43.975Z,66.9
2022-08-25T01:54:45.892Z,66.8
2022-08-25T01:55:47.760Z,66.8
2022-08-25T01:56:49.865Z,67
2022-08-25T01:57:52.275Z,67.1
2022-08-25T01:58:54.016Z,66.6
2022-08-25T01:59:55.839Z,67
2022-08-25T02:00:57.916Z,67.1
2022-08-25T02:02:00.375Z,67.1
2022-08-25T02:03:01.984Z,67
2022-08-25T02:04:03.835Z,67
2022-08-25T02:05:06.058Z,66.9
2022-08-25T02:06:08.225Z,67.1
2022-08-25T02:07:09.895Z,67.2
2022-08-25T02:08:11.935Z,67.3
2022-08-25T02:09:13.855Z,67.3
2022-08-25T02:10:15.975Z,67.3
2022-08-25T02:11:18.016Z,67.3
2022-08-25T02:12:19.895Z,67.3
2022-08-25T02:13:24.825Z,67.4
2022-08-25T02:14:23.835Z,67.3
2022-08-25T02:15:25.901Z,67.3
2022-08-25T02:16:27.978Z,67.3
2022-08-25T02:17:29.635Z,67.2
2022-08-25T02:18:30.795Z,67
2022-08-25T02:19:31.918Z,66.9
2022-08-25T02:20:33.838Z,66.9
2022-08-25T02:21:35.955Z,67
2022-08-25T02:22:37.730Z,67.2
2022-08-25T02:23:38.715Z,67.2
2022-08-25T02:24:40.086Z,67.2
2022-08-25T02:25:42.118Z,67
2022-08-25T02:26:43.774Z,66.9
2022-08-25T02:27:45.015Z,66.9
2022-08-25T02:28:49.136Z,66.9
2022-08-25T02:29:48.955Z,66.8
2022-08-25T02:30:50.897Z,66.9
2022-08-25T02:31:53.596Z,66.9
2022-08-25T02:32:54.964Z,67
2022-08-25T02:33:57.015Z,66.9
2022-08-25T02:34:59.035Z,67
2022-08-25T02:36:01.135Z,66.9
2022-08-25T02:37:02.772Z,66.9
2022-08-25T02:38:04.062Z,67.1
2022-08-25T02:39:05.672Z,67.2
2022-08-25T02:40:07.064Z,67.4
2022-08-25T02:41:09.095Z,67.2
2022-08-25T02:42:10.776Z,67.3
2022-08-25T02:43:12.360Z,67.2
2022-08-25T02:44:14.135Z,67.2
2022-08-25T02:45:16.335Z,67.2
2022-08-25T02:46:17.735Z,67.1
2022-08-25T02:47:18.836Z,67
2022-08-25T02:48:20.810Z,67
2022-08-25T02:49:22.096Z,67.1
2022-08-25T02:50:23.935Z,67.1
2022-08-25T02:51:25.915Z,67.1
2022-08-25T02:52:27.669Z,67.1
2022-08-25T02:53:28.775Z,67.2
2022-08-25T02:54:29.858Z,67.2
2022-08-25T02:55:31.916Z,67.3
2022-08-25T02:56:34.037Z,67.3
2022-08-25T02:57:35.605Z,66.7
2022-08-25T02:58:36.695Z,66.9
2022-08-25T02:59:37.990Z,67.1
2022-08-25T03:00:39.818Z,67.1
2022-08-25T03:01:42.218Z,67.1
2022-08-25T03:02:43.975Z,67.1
2022-08-25T03:03:45.890Z,67
2022-08-25T03:04:47.820Z,66.9
2022-08-25T03:05:48.872Z,67
2022-08-25T03:06:50.605Z,67
2022-08-25T03:07:51.875Z,67
2022-08-25T03:08:53.994Z,67
2022-08-25T03:09:56.014Z,67
2022-08-25T03:10:58.056Z,67
2022-08-25T03:12:00.156Z,66.9
2022-08-25T03:13:01.975Z,66.9
2022-08-25T03:14:03.935Z,67.1
2022-08-25T03:15:09.207Z,67
2022-08-25T03:16:11.128Z,66.9
2022-08-25T03:17:10.005Z,67
2022-08-25T03:18:14.012Z,67
2022-08-25T03:19:13.996Z,67
2022-08-25T03:20:15.935Z,67
2022-08-25T03:21:17.694Z,66.9
2022-08-25T03:22:19.001Z,67
2022-08-25T03:23:21.007Z,67
2022-08-25T03:24:23.117Z,66.9
2022-08-25T03:25:25.115Z,67
2022-08-25T03:26:27.095Z,67
2022-08-25T03:27:29.055Z,67.2
2022-08-25T03:28:31.003Z,67.2
2022-08-25T03:29:32.892Z,67.2
2022-08-25T03:30:34.804Z,67.1
2022-08-25T03:31:36.027Z,67
2022-08-25T03:32:37.966Z,67.1
2022-08-25T03:33:39.975Z,66.9
2022-08-25T03:34:42.015Z,66.8
2022-08-25T03:35:43.975Z,66.8
2022-08-25T03:36:45.795Z,66.8
2022-08-25T03:37:46.895Z,66.8
2022-08-25T03:38:49.177Z,66.8
2022-08-25T03:39:51.274Z,66.7
2022-08-25T03:40:52.855Z,66.7
2022-08-25T03:41:55.076Z,66.8
2022-08-25T03:42:57.011Z,66.9
2022-08-25T03:43:59.255Z,66.9
2022-08-25T03:45:01.034Z,67.1
2022-08-25T03:46:02.903Z,67.2
2022-08-25T03:47:04.195Z,67.2
2022-08-25T03:48:06.355Z,67.3
2022-08-25T03:49:08.127Z,67.4
2022-08-25T03:50:09.896Z,67.5
2022-08-25T03:51:11.897Z,67.4
2022-08-25T03:52:19.155Z,67.2
2022-08-25T03:53:20.996Z,67
2022-08-25T03:54:22.935Z,67.1
2022-08-25T03:55:24.755Z,67.3
2022-08-25T03:56:25.835Z,67.8
2022-08-25T03:57:26.775Z,68
2022-08-25T03:58:27.935Z,67.9
2022-08-25T03:59:29.775Z,67.8
2022-08-25T04:00:31.024Z,67.8
2022-08-25T04:01:32.880Z,67.8
2022-08-25T04:02:34.152Z,67.7
2022-08-25T04:03:35.875Z,67.7
2022-08-25T04:04:38.018Z,67.6
2022-08-25T04:05:40.014Z,67.5
2022-08-25T04:06:42.035Z,67.6
2022-08-25T04:07:44.016Z,67.6
2022-08-25T04:08:45.797Z,67.5
2022-08-25T04:09:46.875Z,67.5
2022-08-25T04:10:48.856Z,67.6
2022-08-25T04:11:50.863Z,67.5
2022-08-25T04:12:51.975Z,67.5
2022-08-25T04:13:53.875Z,67.4
2022-08-25T04:14:55.895Z,67.3
2022-08-25T04:15:58.015Z,67.3
2022-08-25T04:17:00.079Z,67.4
2022-08-25T04:18:02.084Z,67.3
2022-08-25T04:19:03.936Z,67.3
2022-08-25T04:20:06.035Z,67
2022-08-25T04:21:07.955Z,66.9
2022-08-25T04:22:09.955Z,66.9
2022-08-25T04:23:12.215Z,67
2022-08-25T04:24:14.035Z,67
2022-08-25T04:25:16.035Z,66.7
2022-08-25T04:26:17.974Z,66.9
2022-08-25T04:27:20.035Z,67
2022-08-25T04:28:21.915Z,67
2022-08-25T04:29:24.009Z,67
2022-08-25T04:30:25.156Z,66.7
2022-08-25T04:31:27.164Z,66.9
2022-08-25T04:32:29.385Z,67
2022-08-25T04:33:31.135Z,66.9
2022-08-25T04:34:32.915Z,66.9
2022-08-25T04:35:35.016Z,66.8
2022-08-25T04:36:36.883Z,66.8
2022-08-25T04:37:38.116Z,66.7
2022-08-25T04:38:40.075Z,66.6
2022-08-25T04:39:41.779Z,66.6
2022-08-25T04:40:43.077Z,66.6
2022-08-25T04:41:45.088Z,66.8
2022-08-25T04:42:48.111Z,66.9
2022-08-25T04:43:49.015Z,66.9
2022-08-25T04:44:50.955Z,66.7
2022-08-25T04:45:53.516Z,66.8
2022-08-25T04:46:55.076Z,66.8
2022-08-25T04:47:56.715Z,67
2022-08-25T04:48:57.976Z,67
2022-08-25T04:49:59.776Z,67
2022-08-25T04:51:00.936Z,66.9
2022-08-25T04:52:02.798Z,66.7
2022-08-25T04:53:04.095Z,66.6
2022-08-25T04:54:06.035Z,66.6
2022-08-25T04:55:08.100Z,66.7
2022-08-25T04:56:10.015Z,66.7
2022-08-25T04:57:12.376Z,66.7
2022-08-25T04:58:14.604Z,66.7
2022-08-25T04:59:16.096Z,66.7
2022-08-25T05:00:18.116Z,66.7
2022-08-25T05:01:20.034Z,66.5
2022-08-25T05:02:22.576Z,66.4
2022-08-25T05:03:24.061Z,66.3
2022-08-25T05:04:27.536Z,66.2
2022-08-25T05:05:28.075Z,66.4
2022-08-25T05:06:30.457Z,66.5
2022-08-25T05:07:32.075Z,66.6
2022-08-25T05:08:34.016Z,66.4
2022-08-25T05:09:35.978Z,66.6
2022-08-25T05:10:37.955Z,66.5
2022-08-25T05:11:40.155Z,66.4
2022-08-25T05:12:41.932Z,66.5
2022-08-25T05:13:44.235Z,66.5
2022-08-25T05:14:46.096Z,66.6
2022-08-25T05:15:48.015Z,66.6
2022-08-25T05:16:50.108Z,66.7
2022-08-25T05:17:55.761Z,66.3
2022-08-25T05:18:54.179Z,66
2022-08-25T05:19:56.032Z,65.9
2022-08-25T05:20:58.115Z,66.1
2022-08-25T05:22:00.261Z,66.1
2022-08-25T05:23:02.183Z,66.2
2022-08-25T05:24:04.075Z,66.2
2022-08-25T05:25:06.195Z,66
2022-08-25T05:26:08.154Z,66
2022-08-25T05:27:10.195Z,65.7
2022-08-25T05:28:12.054Z,65.7
2022-08-25T05:29:14.362Z,65.3
2022-08-25T05:30:16.776Z,65.7
2022-08-25T05:31:17.981Z,65.8
2022-08-25T05:32:19.856Z,65.7
2022-08-25T05:33:20.956Z,66.2
2022-08-25T05:34:23.143Z,66.1
2022-08-25T05:35:25.279Z,66.1
2022-08-25T05:36:26.795Z,66.2
2022-08-25T05:37:27.975Z,66.2
2022-08-25T05:38:30.155Z,66.1
2022-08-25T05:39:32.465Z,66
2022-08-25T05:40:34.078Z,65.9
2022-08-25T05:41:36.015Z,65.8
2022-08-25T05:42:38.396Z,65.6
2022-08-25T05:43:40.075Z,65.5
2022-08-25T05:44:42.141Z,65.6
2022-08-25T05:45:44.228Z,65.7
2022-08-25T05:46:46.140Z,65.9
2022-08-25T05:47:48.215Z,66
2022-08-25T05:48:50.215Z,66.1
2022-08-25T05:49:51.896Z,66
2022-08-25T05:50:53.276Z,66.2
2022-08-25T05:51:55.196Z,66.2
2022-08-25T05:52:56.996Z,66.1
2022-08-25T05:53:59.060Z,66.1
2022-08-25T05:55:01.075Z,66.2
2022-08-25T05:56:03.097Z,66.3
2022-08-25T05:57:05.026Z,66.4
2022-08-25T05:58:07.477Z,66.3
2022-08-25T05:59:09.688Z,66.2
2022-08-25T06:00:11.336Z,66
2022-08-25T06:01:13.126Z,66.1
2022-08-25T06:02:15.095Z,66
2022-08-25T06:03:17.137Z,65.8
2022-08-25T06:04:19.056Z,65.6
2022-08-25T06:05:21.080Z,65.8
2022-08-25T06:06:23.179Z,66.1
2022-08-25T06:07:25.255Z,66.1
2022-08-25T06:08:26.995Z,66.4
2022-08-25T06:09:29.575Z,66.7
2022-08-25T06:10:31.119Z,66.8
2022-08-25T06:11:33.116Z,66.9
2022-08-25T06:12:34.827Z,67.2
2022-08-25T06:13:35.969Z,67.1
2022-08-25T06:14:38.097Z,67.1
2022-08-25T06:15:40.195Z,66.9
2022-08-25T06:16:41.993Z,66.8
2022-08-25T06:17:44.217Z,66.6
2022-08-25T06:18:46.177Z,66.6
2022-08-25T06:19:48.218Z,66.6
2022-08-25T06:20:50.036Z,66.8
2022-08-25T06:21:52.327Z,67
2022-08-25T06:22:54.083Z,66.9
2022-08-25T06:23:55.975Z,66.7
2022-08-25T06:24:58.017Z,66.4
2022-08-25T06:26:00.306Z,66.1
2022-08-25T06:27:01.935Z,65.4
2022-08-25T06:28:03.098Z,65
2022-08-25T06:29:05.258Z,64.9
2022-08-25T06:30:07.781Z,64.8
2022-08-25T06:31:09.229Z,64.8
2022-08-25T06:32:10.967Z,65
2022-08-25T06:33:12.996Z,65.1
2022-08-25T06:34:15.075Z,65
2022-08-25T06:35:16.862Z,65
2022-08-25T06:36:18.205Z,64.7
2022-08-25T06:37:23.346Z,64.5
2022-08-25T06:38:21.921Z,64.6
2022-08-25T06:39:23.157Z,64.4
2022-08-25T06:40:25.224Z,64.5
2022-08-25T06:41:29.941Z,64.7
2022-08-25T06:42:29.077Z,64.9
2022-08-25T06:43:31.198Z,64.8
2022-08-25T06:44:33.157Z,64.7
2022-08-25T06:45:35.251Z,64.7
2022-08-25T06:46:37.391Z,64.4
2022-08-25T06:47:39.374Z,64.6
2022-08-25T06:48:41.316Z,65
2022-08-25T06:49:43.258Z,64.8
2022-08-25T06:50:45.044Z,65
2022-08-25T06:51:47.028Z,65.3
2022-08-25T06:52:48.957Z,65.3
2022-08-25T06:53:50.051Z,65.6
2022-08-25T06:54:52.176Z,65.7
2022-08-25T06:55:54.257Z,65.9
2022-08-25T06:56:55.796Z,66.3
2022-08-25T06:57:57.361Z,66.6
2022-08-25T06:58:59.116Z,66.8
2022-08-25T07:00:01.156Z,66.6
2022-08-25T07:01:03.426Z,66.6
2022-08-25T07:02:05.731Z,66.8
2022-08-25T07:03:07.208Z,66.5
2022-08-25T07:04:13.012Z,66.4
2022-08-25T07:05:13.515Z,66.3
2022-08-25T07:06:12.857Z,66.1
2022-08-25T07:07:13.996Z,66.3
2022-08-25T07:08:16.245Z,66.2
2022-08-25T07:09:18.396Z,66.2
2022-08-25T07:10:20.497Z,66
2022-08-25T07:11:22.118Z,65.9
2022-08-25T07:12:24.176Z,65.8
2022-08-25T07:13:26.136Z,65.5
2022-08-25T07:14:28.033Z,65.3
2022-08-25T07:15:30.197Z,64.9
2022-08-25T07:16:32.463Z,65
2022-08-25T07:17:33.928Z,65.1
2022-08-25T07:18:34.979Z,65.1
2022-08-25T07:19:37.149Z,65.2
2022-08-25T07:20:39.637Z,65.2
2022-08-25T07:21:40.956Z,65.3
2022-08-25T07:22:43.282Z,65.6
2022-08-25T07:23:45.236Z,65.2
2022-08-25T07:24:47.456Z,64.5
2022-08-25T07:25:49.316Z,64.5
2022-08-25T07:26:51.138Z,64.1
2022-08-25T07:27:57.022Z,63.4
2022-08-25T07:28:55.543Z,63.3
2022-08-25T07:29:57.056Z,63.2
2022-08-25T07:30:59.625Z,63.4
2022-08-25T07:32:01.197Z,63.4
2022-08-25T07:33:06.441Z,63.4
2022-08-25T07:34:05.368Z,63.4
2022-08-25T07:35:07.018Z,63.2
2022-08-25T07:36:09.026Z,63.3
2022-08-25T07:37:11.135Z,63.2
2022-08-25T07:38:15.614Z,63.1
2022-08-25T07:39:15.402Z,62.8
2022-08-25T07:40:17.082Z,62.6
2022-08-25T07:41:19.037Z,62.4
2022-08-25T07:42:21.425Z,62.5
2022-08-25T07:43:23.436Z,62.8
2022-08-25T07:44:25.031Z,62.7
2022-08-25T07:45:26.776Z,62.4
2022-08-25T07:46:27.971Z,62.8
2022-08-25T07:47:29.388Z,62.9
2022-08-25T07:48:31.136Z,62.2
2022-08-25T07:49:35.013Z,62.2
2022-08-25T07:50:34.890Z,62.2
2022-08-25T07:51:36.556Z,61.8
2022-08-25T07:52:39.207Z,62.1
2022-08-25T07:53:40.868Z,62.1
2022-08-25T07:54:41.884Z,62.1
2022-08-25T07:55:44.972Z,62
2022-08-25T07:56:43.997Z,62.4
2022-08-25T07:57:46.661Z,63
2022-08-25T07:58:50.533Z,63
2022-08-25T07:59:56.013Z,63
2022-08-25T08:00:58.036Z,62.8
2022-08-25T08:02:00.210Z,63
2022-08-25T08:03:03.673Z,63.3
2022-08-25T08:04:04.115Z,63.1
2022-08-25T08:05:06.135Z,62.8
2022-08-25T08:06:08.137Z,63.1
2022-08-25T08:07:11.925Z,62.9
2022-08-25T08:08:11.998Z,62.6
2022-08-25T08:09:13.096Z,62.7
2022-08-25T08:11:16.844Z,61.5
2022-08-25T08:12:18.075Z,61.4
2022-08-25T08:13:20.433Z,61.1
2022-08-25T08:14:22.071Z,61.3
2022-08-25T08:15:24.292Z,61.2
2022-08-25T08:16:26.103Z,61.3
2022-08-25T08:17:26.998Z,61.3
2022-08-25T08:18:29.143Z,61.7
2022-08-25T08:19:32.107Z,62
2022-08-25T08:20:42.415Z,62
2022-08-25T08:21:36.437Z,61.7
2022-08-25T08:22:38.276Z,61.8
2022-08-25T08:23:40.136Z,62.5
2022-08-25T08:24:44.534Z,62.9
2022-08-25T08:25:43.182Z,62.5
2022-08-25T08:26:58.047Z,62.6
2022-08-25T08:27:47.017Z,62.2
2022-08-25T08:28:51.994Z,61.9
2022-08-25T08:29:51.154Z,61.5
2022-08-25T08:30:53.968Z,61
2022-08-25T08:31:55.210Z,60.5
2022-08-25T08:33:09.503Z,59.6
2022-08-25T08:33:59.742Z,59.3
2022-08-25T08:35:01.316Z,58.5
2022-08-25T08:36:05.029Z,57.9
2022-08-25T08:37:05.236Z,57.1
2022-08-25T08:38:13.713Z,56.1
2022-08-25T08:39:09.076Z,56.9
2022-08-25T08:40:14.120Z,57.1
2022-08-25T08:41:17.336Z,57
2022-08-25T08:42:19.280Z,56.4
2022-08-25T08:43:21.098Z,56
2022-08-25T08:44:23.871Z,55.7
2022-08-25T08:45:27.681Z,55.4
2022-08-25T08:46:29.080Z,55.4
2022-08-25T08:47:31.064Z,55.5
2022-08-25T08:48:32.952Z,55.3
2022-08-25T08:49:34.569Z,54.5
2022-08-25T08:50:36.401Z,55.1
2022-08-25T08:51:38.311Z,55.1
2022-08-25T08:52:40.093Z,55.4
2022-08-25T08:53:42.083Z,54.9
2022-08-25T08:54:44.208Z,54.3
2022-08-25T08:55:50.562Z,54.8
2022-08-25T08:56:48.694Z,54.9
2022-08-25T08:57:50.335Z,55.4
2022-08-25T08:58:52.150Z,56.3
2022-08-25T08:59:54.166Z,56.8
2022-08-25T09:00:56.134Z,57.3
2022-08-25T09:01:58.081Z,55.9
2022-08-25T09:02:59.302Z,56
2022-08-25T09:04:02.152Z,56.2
2022-08-25T09:05:04.955Z,56
2022-08-25T09:06:06.769Z,55
2022-08-25T09:07:08.651Z,55.5
2022-08-25T09:08:10.534Z,55.6
2022-08-25T09:09:12.511Z,55.2
2022-08-25T09:10:14.351Z,55.5
2022-08-25T09:11:16.567Z,55.4
2022-08-25T09:12:18.438Z,56
2022-08-25T09:13:20.851Z,56.8
2022-08-25T09:14:23.045Z,56.4
2022-08-25T09:15:25.084Z,55.9
2022-08-25T09:16:31.857Z,55.8
2022-08-25T09:17:29.239Z,56.1
2022-08-25T09:18:31.155Z,56.1
2022-08-25T09:19:33.652Z,55.5
2022-08-25T09:20:35.500Z,55.5
2022-08-25T09:21:38.135Z,55
2022-08-25T09:22:40.392Z,54.3
2022-08-25T09:23:42.452Z,54.1
2022-08-25T09:24:44.165Z,51.9
2022-08-25T09:25:52.890Z,51
2022-08-25T09:26:48.279Z,49.9
2022-08-25T09:27:50.336Z,50.6
2022-08-25T09:28:52.191Z,51.3
2022-08-25T09:29:54.110Z,51.4
2022-08-25T09:30:56.436Z,51.4
2022-08-25T09:31:58.388Z,50.2
2022-08-25T09:33:00.271Z,48.6
2022-08-25T09:34:02.292Z,49.4
2022-08-25T09:35:04.072Z,49.7
2022-08-25T09:36:05.514Z,51.2
2022-08-25T09:37:07.230Z,50.1
2022-08-25T09:38:09.112Z,49.4
2022-08-25T09:39:11.017Z,49.5
2022-08-25T09:40:12.158Z,48.4
2022-08-25T09:41:14.333Z,49.5
2022-08-25T09:42:18.287Z,49.5
2022-08-25T09:43:18.113Z,50.7
2022-08-25T09:44:20.592Z,51.3
2022-08-25T09:45:22.060Z,51.4
2022-08-25T09:46:24.301Z,50.6
2022-08-25T09:47:26.552Z,50.4
2022-08-25T09:48:28.494Z,50.6
2022-08-25T09:49:30.216Z,50.4
2022-08-25T09:50:32.125Z,49.5
2022-08-25T09:51:37.804Z,49.6
2022-08-25T09:52:36.392Z,48.5
2022-08-25T09:53:38.613Z,47.8
2022-08-25T09:54:44.471Z,46.5
2022-08-25T09:55:42.330Z,46.1
2022-08-25T09:56:44.393Z,45.8
2022-08-25T09:57:46.230Z,45.7
2022-08-25T09:58:48.470Z,45.7
2022-08-25T09:59:53.818Z,45.6
2022-08-25T10:00:51.113Z,45.5
2022-08-25T10:01:53.307Z,46.2
2022-08-25T10:02:55.171Z,46.2
2022-08-25T10:03:57.321Z,46
2022-08-25T10:04:59.298Z,46.5
2022-08-25T10:06:01.230Z,46.4
2022-08-25T10:07:03.311Z,45.9
2022-08-25T10:08:05.230Z,45.2
2022-08-25T10:09:07.091Z,44.6
2022-08-25T10:10:08.150Z,44.6
2022-08-25T10:11:10.029Z,45.1
2022-08-25T10:12:12.261Z,45
2022-08-25T10:13:14.171Z,45.1
2022-08-25T10:14:16.311Z,45.1
2022-08-25T10:15:30.182Z,43.8
2022-08-25T10:16:24.137Z,42.9
2022-08-25T10:17:21.970Z,42.5
2022-08-25T10:18:23.110Z,42.2
2022-08-25T10:19:25.251Z,42.4
2022-08-25T10:20:27.230Z,43.6
2022-08-25T10:21:29.252Z,43.1
2022-08-25T10:22:31.250Z,42.7
2022-08-25T10:23:33.246Z,42.5
2022-08-25T10:24:35.129Z,42.8
2022-08-25T10:25:36.172Z,42.6
2022-08-25T10:26:38.531Z,42.3
2022-08-25T10:27:40.270Z,41.3
2022-08-25T10:28:42.091Z,40.5
2022-08-25T10:29:43.311Z,40.3
2022-08-25T10:30:45.310Z,40.8
2022-08-25T10:31:47.371Z,41.8
2022-08-25T10:32:49.352Z,41.3
2022-08-25T10:33:51.230Z,42.7
2022-08-25T10:34:53.197Z,43.9
2022-08-25T10:35:55.572Z,42.9
2022-08-25T10:36:57.079Z,42.1
2022-08-25T10:37:58.293Z,41.1
2022-08-25T10:39:01.460Z,41.3
2022-08-25T10:40:02.045Z,40.9
2022-08-25T10:41:03.334Z,41.1
2022-08-25T10:42:05.332Z,41.7
2022-08-25T10:43:07.814Z,41.9
2022-08-25T10:44:10.188Z,41.3
2022-08-25T10:45:16.759Z,41.5
2022-08-25T10:46:16.341Z,42.1
2022-08-25T10:47:18.218Z,42.5
2022-08-25T10:48:20.511Z,41.8
2022-08-25T10:49:22.090Z,41.7
2022-08-25T10:50:24.008Z,42.6
2022-08-25T10:51:25.730Z,43.2
2022-08-25T10:52:27.131Z,43.4
2022-08-25T10:53:28.056Z,43.7
2022-08-25T10:54:29.562Z,43.7
2022-08-25T10:55:31.226Z,43.6
2022-08-25T10:56:33.190Z,43.2
2022-08-25T10:57:35.414Z,43.4
2022-08-25T10:58:37.210Z,43.4
2022-08-25T10:59:39.250Z,43.4
2022-08-25T11:00:41.388Z,43.7
2022-08-25T11:01:44.180Z,43.2
2022-08-25T11:02:45.490Z,43.3
2022-08-25T11:03:47.450Z,42.8
2022-08-25T11:04:49.799Z,43.3
2022-08-25T11:05:51.163Z,42.8
2022-08-25T11:06:54.554Z,43.9
2022-08-25T11:07:55.650Z,43.7
2022-08-25T11:08:57.555Z,43.3
2022-08-25T11:09:59.272Z,43.6
2022-08-25T11:11:01.378Z,43.4
2022-08-25T11:12:03.310Z,41.6
2022-08-25T11:13:05.697Z,42.6
2022-08-25T11:14:09.445Z,42.3
2022-08-25T11:15:09.492Z,42.6
2022-08-25T11:16:19.541Z,42.5
2022-08-25T11:17:13.583Z,43.3
2022-08-25T11:18:15.236Z,43.7
2022-08-25T11:19:17.650Z,44.1
2022-08-25T11:20:26.664Z,44.1
2022-08-25T11:21:22.101Z,43.9
2022-08-25T11:22:22.291Z,43.5
2022-08-25T11:23:25.690Z,43.9
2022-08-25T11:24:27.236Z,43.8
2022-08-25T11:25:29.659Z,44.3
2022-08-25T11:26:33.871Z,44.4
2022-08-25T11:27:33.110Z,44.5
2022-08-25T11:28:34.150Z,44.9
2022-08-25T11:29:36.114Z,44.9
2022-08-25T11:30:37.139Z,44.4
2022-08-25T11:31:38.431Z,44.9
2022-08-25T11:32:40.329Z,44.7
2022-08-25T11:33:43.305Z,44.3
2022-08-25T11:34:45.129Z,44.6
2022-08-25T11:35:47.535Z,44.2
2022-08-25T11:36:49.172Z,43.5
2022-08-25T11:37:51.518Z,44.3
2022-08-25T11:38:53.603Z,44.2
2022-08-25T11:39:55.568Z,43.5
2022-08-25T11:40:57.773Z,43.8
2022-08-25T11:41:59.199Z,43.8
2022-08-25T11:43:01.438Z,43.1
2022-08-25T11:44:03.434Z,42.3
2022-08-25T11:45:05.230Z,41.2
2022-08-25T11:46:07.461Z,41.6
2022-08-25T11:47:12.137Z,41.6
2022-08-25T11:48:14.872Z,41.2
2022-08-25T11:49:17.670Z,41
2022-08-25T11:50:19.170Z,41.8
2022-08-25T11:51:21.590Z,41.7
2022-08-25T11:52:25.038Z,42.4
2022-08-25T11:53:26.844Z,43.1
2022-08-25T11:54:27.429Z,43.8
2022-08-25T11:55:29.416Z,44.6
2022-08-25T11:56:31.550Z,44.8
2022-08-25T11:57:33.273Z,44.9
2022-08-25T11:58:35.431Z,44.8
2022-08-25T11:59:37.222Z,44.9
2022-08-25T12:00:39.358Z,44.7
2022-08-25T12:01:41.542Z,44.1
2022-08-25T12:02:43.269Z,44.6
2022-08-25T12:03:45.371Z,44.8
2022-08-25T12:04:47.656Z,45.2
2022-08-25T12:05:49.190Z,44.3
2022-08-25T12:06:52.907Z,44.3
2022-08-25T12:07:52.531Z,45.2
2022-08-25T12:08:54.456Z,44.5
2022-08-25T12:09:57.076Z,43.6
2022-08-25T12:10:58.995Z,43.1
2022-08-25T12:12:00.070Z,42.2
2022-08-25T12:13:01.595Z,43.2
2022-08-25T12:14:03.431Z,42.3
2022-08-25T12:15:05.955Z,42.2
2022-08-25T12:16:07.274Z,42
2022-08-25T12:17:10.128Z,41.9
2022-08-25T12:18:11.565Z,41.3
2022-08-25T12:19:13.270Z,41.3
2022-08-25T12:20:15.503Z,40.7
2022-08-25T12:21:17.409Z,39.9
2022-08-25T12:22:19.732Z,39.8
2022-08-25T12:23:21.928Z,40.8
2022-08-25T12:24:23.790Z,40.9
2022-08-25T12:25:25.418Z,40.8
2022-08-25T12:26:27.638Z,40.6
2022-08-25T12:27:33.460Z,40.7
2022-08-25T12:28:34.950Z,40.5
2022-08-25T12:29:33.675Z,40.7
2022-08-25T12:30:36.754Z,40.7
2022-08-25T12:31:38.750Z,40.3
2022-08-25T12:32:40.538Z,40.5
2022-08-25T12:33:42.450Z,40.3
2022-08-25T12:34:44.050Z,40.4
2022-08-25T12:35:45.723Z,41
2022-08-25T12:36:47.631Z,40.8
2022-08-25T12:37:48.991Z,40.6
2022-08-25T12:38:52.001Z,40.7
2022-08-25T12:39:52.312Z,40.5
2022-08-25T12:40:54.330Z,41.1
2022-08-25T12:41:56.269Z,41.4
2022-08-25T12:42:58.232Z,41.1
2022-08-25T12:44:00.411Z,40.9
2022-08-25T12:45:02.358Z,40.6
2022-08-25T12:46:04.317Z,41
2022-08-25T12:47:06.533Z,41.7
2022-08-25T12:48:08.390Z,42.1
2022-08-25T12:49:10.352Z,41
2022-08-25T12:50:12.471Z,42.2
2022-08-25T12:51:14.552Z,42.6
2022-08-25T12:52:16.431Z,43.2
2022-08-25T12:53:20.423Z,43
2022-08-25T12:54:22.764Z,43.7
2022-08-25T12:55:24.292Z,43.6
2022-08-25T12:56:26.790Z,43.7
2022-08-25T12:57:29.702Z,43.1
2022-08-25T12:58:43.685Z,43.2
2022-08-25T12:59:31.771Z,43.2
2022-08-25T13:00:33.291Z,43.1
2022-08-25T13:01:36.925Z,43.2
2022-08-25T13:02:36.309Z,43.5
2022-08-25T13:04:41.582Z,43.8
2022-08-25T13:05:42.613Z,43.7
2022-08-25T13:06:44.717Z,43.9
2022-08-25T13:07:46.541Z,43.6
2022-08-25T13:08:48.832Z,43
2022-08-25T13:09:50.683Z,42.9
2022-08-25T13:10:52.657Z,42.9
2022-08-25T13:11:54.211Z,42.2
2022-08-25T13:12:57.010Z,42.5
2022-08-25T13:13:59.166Z,42
2022-08-25T13:15:01.553Z,41.3
2022-08-25T13:16:03.700Z,40.3
2022-08-25T13:17:07.257Z,39.9
2022-08-25T13:18:10.230Z,40.6
2022-08-25T13:19:13.188Z,40.6
2022-08-25T13:20:15.401Z,41.2
2022-08-25T13:21:18.100Z,41.4
2022-08-25T13:22:19.498Z,41.8
2022-08-25T13:23:21.751Z,41.1
2022-08-25T13:24:23.408Z,41.6
2022-08-25T13:25:31.914Z,41.7
2022-08-25T13:26:27.370Z,42
2022-08-25T13:27:29.610Z,42.3
2022-08-25T13:28:32.078Z,42
2022-08-25T13:29:35.853Z,41.9
2022-08-25T13:30:36.380Z,41.5
2022-08-25T13:31:38.350Z,40.9
2022-08-25T13:32:40.343Z,40.4
2022-08-25T13:33:42.612Z,40.4
2022-08-25T13:34:44.830Z,40.9
2022-08-25T13:35:47.769Z,40.7
2022-08-25T13:36:52.117Z,39.6
2022-08-25T13:37:51.645Z,40.5
2022-08-25T13:38:53.089Z,40.7
2022-08-25T13:39:56.024Z,41.5
2022-08-25T13:40:56.738Z,42.2
2022-08-25T13:41:58.652Z,42.9
2022-08-25T13:43:01.195Z,42.6
2022-08-25T13:44:02.650Z,42.7
2022-08-25T13:45:04.326Z,42.2
2022-08-25T13:46:06.661Z,41.8
2022-08-25T13:47:08.734Z,41.9
2022-08-25T13:48:21.368Z,41.7
2022-08-25T13:49:12.538Z,42.2
2022-08-25T13:50:14.243Z,41.8
2022-08-25T13:51:17.178Z,41.5
2022-08-25T13:52:18.217Z,41
2022-08-25T13:53:20.124Z,40.7
2022-08-25T13:54:21.199Z,41.6